createdAt,value
2023-03-12T00:02:06.845Z,98.47
2023-03-12T00:05:00.866Z,98.12
2023-03-12T00:07:47.852Z,97.83
2023-03-12T00:10:27.849Z,98.05
2023-03-12T00:13:21.845Z,98.88
2023-03-12T00:16:17.873Z,98.17
2023-03-12T00:18:53.955Z,98.84
2023-03-12T00:21:40.853Z,98.35
2023-03-12T00:24:14.932Z,98.58
2023-03-12T00:27:01.861Z,98.71
2023-03-12T00:29:34.937Z,98.17
2023-03-12T00:32:21.899Z,98.25
2023-03-12T00:34:59.030Z,98.57
2023-03-12T00:37:45.852Z,98.69
2023-03-12T00:40:19.949Z,98.52
2023-03-12T00:43:06.836Z,98.58
2023-03-12T00:45:39.966Z,98.46
2023-03-12T00:48:33.844Z,98.44
2023-03-12T00:51:27.880Z,98.32
2023-03-12T00:54:15.096Z,98.27
2023-03-12T00:56:48.010Z,98.48
2023-03-12T00:59:34.853Z,98.43
2023-03-12T01:02:07.937Z,98.74
2023-03-12T01:04:54.896Z,98.37
2023-03-12T01:07:34.941Z,97.92
2023-03-12T01:10:16.847Z,97.48
2023-03-12T01:13:03.869Z,98.10
2023-03-12T01:15:37.236Z,97.97
2023-03-12T01:18:23.898Z,97.82
2023-03-12T01:20:57.366Z,97.92
2023-03-12T01:23:43.879Z,97.72
2023-03-12T01:26:17.717Z,98.27
2023-03-12T01:29:04.853Z,98.31
2023-03-12T01:31:38.341Z,98.39
2023-03-12T01:34:25.892Z,98.83
2023-03-12T01:36:59.439Z,98.62
2023-03-12T01:39:45.858Z,98.67
2023-03-12T01:42:19.301Z,98.47
2023-03-12T01:45:15.884Z,98.54
2023-03-12T01:47:55.877Z,98.54
2023-03-12T01:50:42.885Z,98.86
2023-03-12T01:53:17.035Z,99.10
2023-03-12T01:56:04.929Z,99.26
2023-03-12T01:58:41.044Z,98.84
2023-03-12T02:01:30.926Z,98.89
2023-03-12T02:04:10.927Z,99.39
2023-03-12T02:07:11.865Z,99.35
2023-03-12T02:09:48.730Z,99.46
2023-03-12T02:12:35.881Z,99.86
2023-03-12T02:15:16.861Z,100.00
2023-03-12T02:17:56.999Z,100.00
2023-03-12T02:20:54.873Z,100.00
2023-03-12T02:23:53.983Z,99.94
2023-03-12T02:26:35.875Z,99.77
2023-03-12T02:29:23.889Z,99.44
2023-03-12T02:32:00.888Z,99.38
2023-03-12T02:34:47.881Z,98.51
2023-03-12T02:37:21.308Z,99.28
2023-03-12T02:40:31.886Z,98.66
2023-03-12T02:43:07.674Z,98.71
2023-03-12T02:45:53.897Z,99.28
2023-03-12T02:48:27.307Z,99.26
2023-03-12T02:51:13.930Z,98.75
2023-03-12T02:53:47.313Z,98.84
2023-03-12T02:56:38.896Z,98.90
2023-03-12T02:59:20.897Z,99.06
2023-03-12T03:02:03.462Z,99.55
2023-03-12T03:04:42.888Z,99.50
2023-03-12T03:07:22.976Z,99.15
2023-03-12T03:10:02.913Z,99.22
2023-03-12T03:12:44.384Z,99.31
2023-03-12T03:15:23.889Z,99.31
2023-03-12T03:18:10.905Z,99.68
2023-03-12T03:20:51.911Z,99.69
2023-03-12T03:23:38.912Z,99.37
2023-03-12T03:26:18.887Z,99.30
2023-03-12T03:29:05.909Z,99.55
2023-03-12T03:31:45.910Z,99.26
2023-03-12T03:34:26.014Z,98.26
2023-03-12T03:37:05.861Z,98.92
2023-03-12T03:39:45.984Z,98.92
2023-03-12T03:42:25.906Z,99.01
2023-03-12T03:45:12.903Z,98.93
2023-03-12T03:47:52.942Z,99.22
2023-03-12T03:50:32.985Z,98.66
2023-03-12T03:53:15.898Z,98.63
2023-03-12T03:56:02.919Z,98.86
2023-03-12T03:58:36.332Z,98.52
2023-03-12T04:01:22.925Z,98.42
2023-03-12T04:03:56.240Z,98.39
2023-03-12T04:06:42.918Z,98.72
2023-03-12T04:09:18.134Z,98.47
2023-03-12T04:12:04.908Z,98.60
2023-03-12T04:14:42.459Z,98.44
2023-03-12T04:17:28.897Z,98.46
2023-03-12T04:20:08.924Z,98.57
2023-03-12T04:22:49.004Z,98.40
2023-03-12T04:25:28.913Z,98.42
2023-03-12T04:28:08.927Z,98.66
2023-03-12T04:30:48.989Z,98.75
2023-03-12T04:33:22.425Z,99.00
2023-03-12T04:36:08.994Z,98.79
2023-03-12T04:38:42.317Z,98.95
2023-03-12T04:41:29.955Z,98.74
2023-03-12T04:44:04.674Z,98.83
2023-03-12T04:46:51.028Z,98.73
2023-03-12T04:49:30.991Z,98.54
2023-03-12T04:52:17.963Z,98.88
2023-03-12T04:54:51.311Z,98.85
2023-03-12T04:57:37.954Z,99.11
2023-03-12T05:00:19.943Z,99.37
2023-03-12T05:03:00.082Z,99.43
2023-03-12T05:05:39.927Z,99.43
2023-03-12T05:08:26.941Z,99.19
2023-03-12T05:11:06.935Z,99.39
2023-03-12T05:13:47.071Z,99.17
2023-03-12T05:16:27.020Z,99.26
2023-03-12T05:19:07.061Z,99.41
2023-03-12T05:21:48.931Z,99.69
2023-03-12T05:24:35.966Z,99.51
2023-03-12T05:27:15.934Z,99.70
2023-03-12T05:29:56.037Z,100.00
2023-03-12T05:32:36.029Z,100.00
2023-03-12T05:35:16.044Z,99.91
2023-03-12T05:37:55.999Z,100.00
2023-03-12T05:40:43.988Z,99.57
2023-03-12T05:43:23.941Z,100.00
2023-03-12T05:46:16.043Z,100.00
2023-03-12T05:48:55.949Z,100.00
2023-03-12T05:51:42.958Z,100.00
2023-03-12T05:54:17.597Z,100.00
2023-03-12T05:57:03.989Z,100.00
2023-03-12T05:59:37.308Z,100.00
2023-03-12T06:02:23.965Z,100.00
2023-03-12T06:04:58.480Z,100.00
2023-03-12T06:07:45.005Z,100.00
2023-03-12T06:10:19.361Z,100.00
2023-03-12T06:13:05.973Z,99.43
2023-03-12T06:15:39.355Z,98.50
2023-03-12T06:18:25.974Z,98.89
2023-03-12T06:21:14.231Z,97.93
2023-03-12T06:24:08.002Z,95.33
2023-03-12T06:26:54.972Z,96.00
2023-03-12T06:29:28.118Z,94.12
2023-03-12T06:32:15.129Z,94.00
2023-03-12T06:34:54.963Z,92.26
2023-03-12T06:37:41.965Z,92.10
2023-03-12T06:40:22.956Z,90.30
2023-03-12T06:43:09.981Z,89.28
2023-03-12T06:45:43.064Z,88.45
2023-03-12T06:48:37.969Z,86.49
2023-03-12T06:51:24.983Z,85.84
2023-03-12T06:53:58.069Z,84.99
2023-03-12T06:56:44.954Z,85.78
2023-03-12T06:59:21.844Z,84.98
2023-03-12T07:02:09.014Z,84.01
2023-03-12T07:04:42.089Z,84.85
2023-03-12T07:07:28.968Z,83.64
2023-03-12T07:10:08.991Z,84.51
2023-03-12T07:12:55.978Z,82.46
2023-03-12T07:15:30.106Z,82.57
2023-03-12T07:18:17.997Z,78.87
2023-03-12T07:20:51.144Z,80.49
2023-03-12T07:23:37.977Z,76.88
2023-03-12T07:26:18.972Z,79.38
2023-03-12T07:29:05.993Z,78.05
2023-03-12T07:31:39.205Z,78.30
2023-03-12T07:34:26.061Z,78.73
2023-03-12T07:37:00.068Z,78.37
2023-03-12T07:39:47.011Z,77.73
2023-03-12T07:42:20.107Z,76.47
2023-03-12T07:45:07.030Z,78.32
2023-03-12T07:47:40.185Z,78.61
2023-03-12T07:50:27.030Z,78.97
2023-03-12T07:53:06.984Z,78.12
2023-03-12T07:56:01.100Z,76.02
2023-03-12T07:58:48.030Z,72.80
2023-03-12T08:01:28.115Z,75.79
2023-03-12T08:04:22.024Z,77.11
2023-03-12T08:07:09.458Z,76.39
2023-03-12T08:09:43.269Z,74.15
2023-03-12T08:12:30.048Z,75.44
2023-03-12T08:15:10.010Z,74.90
2023-03-12T08:18:03.982Z,74.39
2023-03-12T08:20:51.001Z,75.42
2023-03-12T08:23:30.990Z,75.89
2023-03-12T08:26:25.006Z,74.86
2023-03-12T08:29:12.018Z,72.58
2023-03-12T08:32:03.403Z,74.36
2023-03-12T08:34:51.022Z,74.55
2023-03-12T08:37:31.002Z,73.11
2023-03-12T08:40:22.001Z,74.17
2023-03-12T08:43:02.016Z,73.58
2023-03-12T08:45:57.026Z,73.18
2023-03-12T08:48:51.007Z,71.92
2023-03-12T08:51:45.014Z,70.56
2023-03-12T08:54:32.033Z,70.14
2023-03-12T08:57:12.019Z,66.55
2023-03-12T08:59:59.053Z,67.67
2023-03-12T09:02:34.085Z,68.02
2023-03-12T09:05:21.039Z,66.71
2023-03-12T09:08:02.053Z,67.97
2023-03-12T09:10:55.044Z,65.36
2023-03-12T09:13:45.318Z,66.81
2023-03-12T09:16:36.048Z,66.19
2023-03-12T09:19:09.186Z,66.42
2023-03-12T09:21:56.020Z,61.95
2023-03-12T09:24:29.128Z,65.83
2023-03-12T09:27:16.043Z,63.67
2023-03-12T09:29:59.301Z,63.10
2023-03-12T09:32:47.141Z,64.30
2023-03-12T09:35:22.173Z,65.23
2023-03-12T09:38:10.016Z,60.06
2023-03-12T09:40:44.140Z,64.42
2023-03-12T09:44:10.002Z,63.94
2023-03-12T09:47:01.106Z,61.92
2023-03-12T09:50:04.020Z,63.40
2023-03-12T09:53:34.042Z,64.62
2023-03-12T09:56:32.043Z,66.64
2023-03-12T09:59:26.036Z,65.52
2023-03-12T10:02:39.024Z,67.06
2023-03-12T10:05:29.060Z,69.18
2023-03-12T10:08:24.425Z,67.90
2023-03-12T10:11:15.044Z,68.71
2023-03-12T10:14:07.142Z,69.65
2023-03-12T10:17:24.021Z,70.26
2023-03-12T10:20:17.054Z,69.69
2023-03-12T10:23:22.032Z,68.86
2023-03-12T10:26:23.044Z,67.78
2023-03-12T10:29:00.259Z,68.28
2023-03-12T10:32:02.088Z,66.27
2023-03-12T10:34:59.051Z,65.61
2023-03-12T10:37:52.065Z,66.61
2023-03-12T10:40:31.228Z,67.58
2023-03-12T10:43:18.068Z,65.93
2023-03-12T10:46:20.063Z,66.64
2023-03-12T10:49:37.052Z,65.48
2023-03-12T10:52:29.066Z,67.42
2023-03-12T10:59:05.079Z,67.94
2023-03-12T11:01:56.094Z,68.24
2023-03-12T11:04:37.158Z,69.61
2023-03-12T11:07:39.061Z,69.85
2023-03-12T11:10:22.110Z,68.68
2023-03-12T11:13:19.057Z,67.15
2023-03-12T11:16:24.180Z,68.14
2023-03-12T11:19:13.061Z,68.69
2023-03-12T11:22:14.062Z,69.03
2023-03-12T11:25:13.070Z,68.03
2023-03-12T11:27:56.237Z,68.18
2023-03-12T11:30:46.111Z,67.02
2023-03-12T11:33:20.171Z,68.96
2023-03-12T11:36:25.081Z,68.60
2023-03-12T11:39:10.219Z,67.42
2023-03-12T11:42:00.079Z,67.98
2023-03-12T11:44:58.366Z,64.97
2023-03-12T11:47:57.065Z,67.48
2023-03-12T11:50:43.095Z,67.40
2023-03-12T11:53:51.075Z,67.72
2023-03-12T11:56:40.267Z,67.04
2023-03-12T11:59:30.279Z,67.49
2023-03-12T12:02:20.487Z,69.21
2023-03-12T12:05:13.084Z,65.51
2023-03-12T12:08:04.199Z,67.71
2023-03-12T12:11:15.080Z,65.91
2023-03-12T12:13:59.162Z,67.71
2023-03-12T12:17:08.153Z,66.08
2023-03-12T12:19:59.173Z,67.83
2023-03-12T12:23:09.095Z,66.56
2023-03-12T12:25:53.201Z,67.60
2023-03-12T12:28:49.097Z,65.31
2023-03-12T12:31:52.197Z,65.58
2023-03-12T12:35:07.112Z,62.58
2023-03-12T12:38:05.235Z,62.08
2023-03-12T12:40:58.101Z,66.10
2023-03-12T12:43:46.097Z,64.76
2023-03-12T12:46:43.102Z,66.21
2023-03-12T12:49:49.105Z,63.96
2023-03-12T12:52:43.075Z,63.66
2023-03-12T12:55:39.102Z,63.35
2023-03-12T12:58:26.201Z,63.15
2023-03-12T13:01:14.128Z,63.63
2023-03-12T13:03:52.234Z,64.56
2023-03-12T13:07:07.124Z,61.61
2023-03-12T13:09:45.213Z,64.06
2023-03-12T13:12:32.155Z,63.13
2023-03-12T13:15:14.120Z,63.96
2023-03-12T13:18:32.125Z,62.55
2023-03-12T13:21:28.120Z,61.99
2023-03-12T13:24:29.217Z,63.99
2023-03-12T13:27:32.131Z,64.06
2023-03-12T13:30:05.274Z,62.97
2023-03-12T13:32:55.141Z,62.08
2023-03-12T13:35:28.260Z,62.80
2023-03-12T13:38:24.113Z,62.02
2023-03-12T13:41:22.139Z,59.75
2023-03-12T13:44:34.137Z,62.30
2023-03-12T13:47:26.224Z,62.72
2023-03-12T13:50:20.118Z,61.80
2023-03-12T13:53:04.172Z,60.19
2023-03-12T13:55:56.137Z,60.41
2023-03-12T13:58:29.256Z,59.80
2023-03-12T14:01:25.209Z,59.41
2023-03-12T14:04:07.232Z,58.93
2023-03-12T14:07:33.139Z,58.22
2023-03-12T14:10:16.146Z,57.60
2023-03-12T14:13:28.135Z,59.54
2023-03-12T14:16:33.207Z,58.54
2023-03-12T14:19:14.155Z,59.29
2023-03-12T14:22:13.125Z,59.51
2023-03-12T14:25:11.160Z,61.56
2023-03-12T14:27:58.171Z,61.29
2023-03-12T14:30:48.215Z,61.17
2023-03-12T14:33:47.145Z,61.42
2023-03-12T14:36:28.265Z,57.50
2023-03-12T14:39:27.152Z,60.75
2023-03-12T14:42:15.153Z,62.05
2023-03-12T14:45:08.170Z,59.71
2023-03-12T14:47:59.169Z,61.75
2023-03-12T14:50:55.257Z,62.41
2023-03-12T14:53:46.154Z,64.38
2023-03-12T14:56:47.152Z,61.51
2023-03-12T14:59:47.170Z,59.75
2023-03-12T15:02:37.160Z,61.09
2023-03-12T15:05:11.347Z,61.46
2023-03-12T15:08:09.151Z,61.84
2023-03-12T15:10:44.251Z,62.72
2023-03-12T15:13:34.157Z,58.18
2023-03-12T15:16:07.340Z,60.18
2023-03-12T15:18:56.164Z,58.28
2023-03-12T15:21:37.154Z,61.77
2023-03-12T15:24:31.164Z,59.26
2023-03-12T15:27:35.176Z,61.70
2023-03-12T15:30:15.172Z,60.65
2023-03-12T15:33:24.170Z,60.60
2023-03-12T15:36:21.170Z,61.44
2023-03-12T15:39:37.264Z,63.26
2023-03-12T15:42:24.393Z,62.93
2023-03-12T15:45:11.164Z,63.31
2023-03-12T15:47:47.268Z,64.16
2023-03-12T15:50:43.225Z,66.96
2023-03-12T15:53:19.274Z,65.33
2023-03-12T15:56:27.188Z,64.72
2023-03-12T15:59:38.171Z,67.20
2023-03-12T16:02:49.196Z,65.50
2023-03-12T16:05:39.194Z,65.90
2023-03-12T16:08:21.281Z,65.92
2023-03-12T16:11:08.190Z,64.96
2023-03-12T16:13:42.058Z,65.75
2023-03-12T16:16:29.267Z,70.12
2023-03-12T16:19:02.384Z,69.66
2023-03-12T16:21:50.180Z,73.52
2023-03-12T16:24:30.210Z,73.80
2023-03-12T16:27:32.926Z,72.97
2023-03-12T16:30:42.188Z,74.00
2023-03-12T16:33:20.282Z,73.54
2023-03-12T16:36:07.216Z,72.59
2023-03-12T16:38:47.190Z,74.87
2023-03-12T16:41:42.195Z,74.43
2023-03-12T16:44:36.187Z,73.47
2023-03-12T16:47:23.186Z,76.99
2023-03-12T16:50:03.203Z,76.02
2023-03-12T16:52:53.183Z,75.88
2023-03-12T16:55:29.315Z,75.93
2023-03-12T16:58:20.187Z,76.27
2023-03-12T17:01:01.232Z,75.68
2023-03-12T17:03:57.653Z,76.53
2023-03-12T17:06:46.188Z,76.20
2023-03-12T17:09:19.302Z,77.13
2023-03-12T17:12:06.198Z,78.86
2023-03-12T17:14:47.207Z,78.24
2023-03-12T17:17:34.289Z,79.02
2023-03-12T17:20:10.178Z,79.26
2023-03-12T17:22:57.192Z,78.18
2023-03-12T17:25:34.305Z,77.70
2023-03-12T17:28:22.228Z,76.44
2023-03-12T17:30:55.608Z,76.53
2023-03-12T17:33:42.212Z,78.00
2023-03-12T17:36:16.317Z,78.29
2023-03-12T17:39:03.195Z,77.19
2023-03-12T17:41:39.255Z,76.88
2023-03-12T17:44:26.203Z,78.81
2023-03-12T17:47:06.272Z,78.68
2023-03-12T17:49:53.205Z,80.41
2023-03-12T17:52:33.199Z,80.24
2023-03-12T17:55:27.235Z,80.42
2023-03-12T17:58:14.200Z,80.49
2023-03-12T18:00:47.339Z,80.78
2023-03-12T18:03:34.323Z,81.58
2023-03-12T18:06:15.232Z,81.76
2023-03-12T18:09:09.270Z,81.53
2023-03-12T18:11:56.301Z,81.52
2023-03-12T18:14:29.335Z,81.58
2023-03-12T18:17:16.243Z,82.59
2023-03-12T18:19:49.470Z,82.78
2023-03-12T18:22:36.247Z,82.22
2023-03-12T18:25:09.408Z,80.90
2023-03-12T18:27:56.748Z,81.04
2023-03-12T18:30:37.232Z,82.27
2023-03-12T18:33:24.239Z,83.24
2023-03-12T18:36:04.281Z,82.83
2023-03-12T18:38:58.244Z,83.41
2023-03-12T18:41:45.223Z,83.85
2023-03-12T18:44:18.322Z,82.79
2023-03-12T18:47:05.368Z,83.18
2023-03-12T18:49:38.362Z,83.14
2023-03-12T18:52:25.280Z,82.97
2023-03-12T18:54:58.412Z,83.44
2023-03-12T18:57:45.233Z,83.69
2023-03-12T19:00:21.814Z,84.33
2023-03-12T19:03:08.341Z,84.32
2023-03-12T19:05:48.257Z,84.06
2023-03-12T19:08:36.257Z,84.10
2023-03-12T19:11:21.255Z,84.14
2023-03-12T19:14:15.249Z,84.27
2023-03-12T19:17:02.394Z,84.58
2023-03-12T19:19:42.263Z,85.05
2023-03-12T19:22:32.240Z,85.32
2023-03-12T19:25:12.280Z,85.46
2023-03-12T19:27:59.312Z,85.42
2023-03-12T19:30:40.253Z,85.79
2023-03-12T19:33:35.315Z,86.15
2023-03-12T19:36:29.283Z,86.16
2023-03-12T19:39:21.547Z,86.75
2023-03-12T19:42:05.248Z,86.36
2023-03-12T19:44:52.280Z,86.86
2023-03-12T19:47:26.824Z,87.00
2023-03-12T19:50:15.244Z,86.88
2023-03-12T19:52:48.453Z,86.92
2023-03-12T19:55:35.365Z,86.94
2023-03-12T19:58:16.317Z,87.41
2023-03-12T20:01:14.261Z,87.58
2023-03-12T20:04:01.284Z,88.43
2023-03-12T20:06:34.374Z,88.43
2023-03-12T20:09:21.289Z,88.81
2023-03-12T20:12:01.259Z,88.49
2023-03-12T20:14:48.289Z,89.01
2023-03-12T20:17:22.391Z,89.11
2023-03-12T20:20:09.260Z,89.42
2023-03-12T20:22:50.263Z,89.20
2023-03-12T20:25:44.250Z,89.47
2023-03-12T20:28:31.291Z,89.92
2023-03-12T20:31:04.373Z,89.92
2023-03-12T20:33:51.312Z,90.45
2023-03-12T20:36:24.420Z,90.21
2023-03-12T20:39:11.283Z,90.22
2023-03-12T20:41:51.290Z,90.63
2023-03-12T20:44:38.303Z,90.61
2023-03-12T20:47:11.402Z,90.71
2023-03-12T20:50:05.333Z,90.82
2023-03-12T20:52:59.302Z,90.98
2023-03-12T20:55:53.327Z,90.74
2023-03-12T20:58:47.282Z,91.08
2023-03-12T21:01:41.345Z,91.07
2023-03-12T21:04:28.302Z,91.07
2023-03-12T21:07:01.399Z,90.79
2023-03-12T21:09:48.358Z,90.71
2023-03-12T21:12:21.379Z,91.02
2023-03-12T21:15:12.322Z,90.67
2023-03-12T21:17:46.465Z,90.79
2023-03-12T21:20:33.291Z,91.61
2023-03-12T21:23:13.369Z,91.17
2023-03-12T21:26:15.347Z,91.10
2023-03-12T21:29:02.321Z,91.47
2023-03-12T21:31:35.892Z,91.73
2023-03-12T21:34:22.269Z,92.39
2023-03-12T21:36:55.483Z,92.32
2023-03-12T21:39:42.291Z,92.29
2023-03-12T21:42:15.391Z,92.57
2023-03-12T21:45:02.316Z,92.68
2023-03-12T21:47:35.460Z,92.91
2023-03-12T21:50:29.358Z,92.53
2023-03-12T21:53:24.230Z,92.89
2023-03-12T21:56:20.347Z,93.12
2023-03-12T21:59:14.328Z,92.79
2023-03-12T22:02:08.305Z,92.84
2023-03-12T22:04:58.308Z,92.97
2023-03-12T22:07:38.322Z,92.18
2023-03-12T22:10:25.305Z,92.66
2023-03-12T22:13:05.299Z,92.84
2023-03-12T22:16:08.527Z,92.70
2023-03-12T22:18:55.343Z,92.62
2023-03-12T22:21:29.459Z,92.37
2023-03-12T22:24:17.364Z,92.83
2023-03-12T22:26:59.436Z,92.70
2023-03-12T22:29:53.318Z,92.49
2023-03-12T22:32:40.384Z,92.71
2023-03-12T22:35:14.451Z,92.59
2023-03-12T22:38:01.301Z,91.77
2023-03-12T22:40:34.615Z,91.72
2023-03-12T22:43:22.455Z,91.68
2023-03-12T22:46:00.392Z,91.43
2023-03-12T22:48:47.326Z,91.51
2023-03-12T22:51:28.322Z,92.22
2023-03-12T22:54:15.345Z,92.07
2023-03-12T22:56:48.409Z,92.43
2023-03-12T22:59:35.320Z,93.26
2023-03-12T23:02:08.671Z,92.57
2023-03-12T23:04:55.417Z,92.75
2023-03-12T23:07:29.436Z,91.95
2023-03-12T23:10:34.325Z,92.01
2023-03-12T23:13:09.387Z,91.75
2023-03-12T23:15:56.326Z,92.24
2023-03-12T23:18:29.412Z,92.33
2023-03-12T23:21:19.328Z,92.42
2023-03-12T23:24:00.312Z,92.50
2023-03-12T23:26:48.398Z,91.97
2023-03-12T23:29:21.512Z,91.87
2023-03-12T23:32:08.338Z,92.72
2023-03-12T23:34:41.433Z,92.98
2023-03-12T23:37:28.326Z,92.58
2023-03-12T23:40:08.334Z,92.31
2023-03-12T23:42:55.359Z,92.64
2023-03-12T23:45:35.426Z,92.47
2023-03-12T23:48:29.334Z,92.22
2023-03-12T23:51:27.348Z,92.29
2023-03-12T23:54:14.394Z,92.81
2023-03-12T23:56:48.527Z,92.82
2023-03-12T23:59:35.360Z,92.75
